< < Back
Terminal Aerodrome Forecast


Current Version              Previous Versions:   1  2  3  4  5  6  7  8  9  

Terminal Aerodrome Forecast

244
FTUS44 KBMX 241135
TAFBHM
TAF
KBHM 241135Z 2412/2512 VRB03KT P6SM SCT040 SCT250
     FM241800 15006KT P6SM VCTS BKN050CB
     FM250000 VRB02KT P6SM BKN250=

Latest METAR

956
SAUS70 KWBC 250000
MTRBHM
METAR KBHM 242353Z 15003KT 10SM BKN250 31/23 A3002 RMK AO2 SLP155 60000
T03110228 10328 20283 53001


USA.gov is the U.S. government's official web portal to all federal, state and local government web resources and services.